createdAt,value
2023-01-23T00:00:49.422Z,102150.88
2023-01-23T00:06:04.222Z,102162.88
2023-01-23T00:11:13.432Z,102169.47
2023-01-23T00:16:13.949Z,102158.59
2023-01-23T00:21:17.187Z,102165.38
2023-01-23T00:26:21.133Z,102138.16
2023-01-23T00:31:32.035Z,102149.72
2023-01-23T00:36:38.313Z,102159.72
2023-01-23T00:41:38.897Z,102176.66
2023-01-23T00:46:38.800Z,102190.09
2023-01-23T00:51:38.562Z,102181.03
2023-01-23T00:56:37.799Z,102210.81
2023-01-23T01:01:39.466Z,102172.59
2023-01-23T01:06:38.548Z,102209.88
2023-01-23T01:11:42.012Z,102178.84
2023-01-23T01:16:46.954Z,102192.69
2023-01-23T01:21:47.871Z,102199.44
2023-01-23T01:26:47.976Z,102169.94
2023-01-23T01:31:48.610Z,102191.34
2023-01-23T01:36:58.674Z,102189.72
2023-01-23T01:42:08.916Z,102174.13
2023-01-23T01:47:17.111Z,102184.13
2023-01-23T01:52:19.429Z,102195.75
2023-01-23T01:57:25.385Z,102153.97
2023-01-23T02:02:34.013Z,102203.66
2023-01-23T02:07:36.877Z,102209.03
2023-01-23T02:12:38.827Z,102191.78
2023-01-23T02:17:41.317Z,102164.75
2023-01-23T02:23:10.945Z,102221.94
2023-01-23T02:28:12.771Z,102208.94
2023-01-23T02:33:34.997Z,102197.31
2023-01-23T02:38:43.300Z,102188.97
2023-01-23T02:43:44.321Z,102231.09
2023-01-23T02:48:48.558Z,102224.53
2023-01-23T02:53:49.886Z,102214.75
2023-01-23T02:59:21.652Z,102227.03
2023-01-23T03:04:23.764Z,102249.78
2023-01-23T03:09:37.189Z,102224.81
2023-01-23T03:14:46.748Z,102222.13
2023-01-23T03:19:47.574Z,102235.94
2023-01-23T03:24:54.076Z,102252.75
2023-01-23T03:30:16.242Z,102277.75
2023-01-23T03:35:22.775Z,102249.16
2023-01-23T03:40:45.777Z,102236.28
2023-01-23T03:45:52.086Z,102254.50
2023-01-23T03:50:54.053Z,102267.38
2023-01-23T03:55:54.247Z,102265.56
2023-01-23T04:00:55.476Z,102311.06
2023-01-23T04:05:59.447Z,102290.44
2023-01-23T04:11:10.397Z,102288.78
2023-01-23T04:16:11.730Z,102271.22
2023-01-23T04:21:12.569Z,102256.75
2023-01-23T04:26:14.493Z,102266.50
2023-01-23T04:31:15.593Z,102339.25
2023-01-23T04:36:45.217Z,102301.72
2023-01-23T04:41:47.603Z,102311.75
2023-01-23T04:47:14.643Z,102326.50
2023-01-23T04:52:13.933Z,102324.41
2023-01-23T04:57:21.519Z,102315.31
2023-01-23T05:02:26.248Z,102329.75
2023-01-23T05:07:25.135Z,102309.00
2023-01-23T05:12:35.787Z,102347.34
2023-01-23T05:17:36.443Z,102343.94
2023-01-23T05:22:35.860Z,102328.34
2023-01-23T05:27:50.288Z,102383.03
2023-01-23T05:32:53.454Z,102359.47
2023-01-23T05:37:55.676Z,102345.50
2023-01-23T05:43:02.028Z,102374.53
2023-01-23T05:48:03.242Z,102378.25
2023-01-23T05:53:06.248Z,102394.56
2023-01-23T05:58:15.910Z,102419.94
2023-01-23T06:03:27.002Z,102402.25
2023-01-23T06:08:47.466Z,102420.53
2023-01-23T06:13:47.477Z,102442.53
2023-01-23T06:18:48.003Z,102396.69
2023-01-23T06:23:50.681Z,102433.44
2023-01-23T06:28:51.208Z,102448.69
2023-01-23T06:33:55.962Z,102452.88
2023-01-23T06:51:36.041Z,102443.16
2023-01-23T06:56:38.317Z,102443.25
2023-01-23T07:01:40.819Z,102454.13
2023-01-23T07:06:56.752Z,102457.50
2023-01-23T07:11:56.381Z,102487.50
2023-01-23T07:16:57.132Z,102506.53
2023-01-23T07:21:57.588Z,102488.69
2023-01-23T07:26:56.187Z,102484.97
2023-01-23T07:31:58.338Z,102483.09
2023-01-23T07:36:57.096Z,102468.28
2023-01-23T07:42:06.214Z,102489.25
2023-01-23T07:47:05.234Z,102491.94
2023-01-23T07:52:17.864Z,102509.66
2023-01-23T07:57:17.822Z,102480.97
2023-01-23T08:02:16.211Z,102504.16
2023-01-23T08:07:16.717Z,102482.63
2023-01-23T08:12:18.442Z,102509.38
2023-01-23T08:17:17.377Z,102492.63
2023-01-23T08:22:15.731Z,102517.06
2023-01-23T08:27:14.016Z,102495.34
2023-01-23T08:32:12.727Z,102494.88
2023-01-23T08:37:12.758Z,102497.28
2023-01-23T08:42:13.502Z,102493.84
2023-01-23T08:47:11.343Z,102505.69
2023-01-23T08:52:13.119Z,102525.91
2023-01-23T08:57:13.019Z,102504.25
2023-01-23T09:02:13.179Z,102544.94
2023-01-23T09:07:15.460Z,102495.34
2023-01-23T09:12:13.101Z,102512.88
2023-01-23T09:17:12.016Z,102508.03
2023-01-23T09:22:16.843Z,102498.28
2023-01-23T09:27:15.279Z,102494.25
2023-01-23T09:32:14.487Z,102501.03
2023-01-23T09:37:17.685Z,102505.75
2023-01-23T09:42:20.536Z,102493.84
2023-01-23T09:47:39.263Z,102525.66
2023-01-23T09:53:15.660Z,102528.47
2023-01-23T09:58:59.684Z,102511.31
2023-01-23T10:04:03.720Z,102537.44
2023-01-23T10:09:18.670Z,102514.72
2023-01-23T10:14:20.180Z,102531.75
2023-01-23T10:19:59.559Z,102534.31
2023-01-23T10:24:58.558Z,102509.06
2023-01-23T10:30:03.727Z,102516.41
2023-01-23T10:35:05.825Z,102512.47
2023-01-23T10:40:43.150Z,102509.09
2023-01-23T10:45:45.237Z,102522.91
2023-01-23T10:50:49.399Z,102521.56
2023-01-23T10:55:48.379Z,102528.13
2023-01-23T11:00:47.061Z,102519.00
2023-01-23T11:05:56.493Z,102509.72
2023-01-23T11:11:33.122Z,102508.81
2023-01-23T11:16:31.761Z,102496.28
2023-01-23T11:21:54.588Z,102517.53
2023-01-23T11:27:17.213Z,102526.91
2023-01-23T11:32:17.510Z,102519.66
2023-01-23T11:37:23.130Z,102501.16
2023-01-23T11:42:33.446Z,102503.94
2023-01-23T11:47:50.573Z,102523.25
2023-01-23T11:53:41.555Z,102480.34
2023-01-23T11:59:09.863Z,102514.72
2023-01-23T12:04:43.663Z,102536.66
2023-01-23T12:09:59.714Z,102536.69
2023-01-23T12:15:43.223Z,102500.75
2023-01-23T12:21:04.583Z,102552.63
2023-01-23T12:26:15.469Z,102545.97
2023-01-23T12:31:44.163Z,102545.78
2023-01-23T12:37:08.717Z,102556.94
2023-01-23T12:42:21.883Z,102521.31
2023-01-23T12:47:54.521Z,102531.19
2023-01-23T12:53:04.297Z,102553.16
2023-01-23T12:58:10.085Z,102532.00
2023-01-23T13:03:25.888Z,102569.09
2023-01-23T13:08:40.506Z,102561.06
2023-01-23T13:14:17.091Z,102574.28
2023-01-23T13:19:50.822Z,102546.41
2023-01-23T13:25:17.503Z,102553.84
2023-01-23T13:30:27.554Z,102585.44
2023-01-23T13:35:50.399Z,102585.69
2023-01-23T13:41:13.452Z,102596.34
2023-01-23T14:20:24.494Z,102598.28
2023-01-23T14:25:24.028Z,102598.34
2023-01-23T14:30:54.306Z,102571.69
2023-01-23T14:36:09.148Z,102569.88
2023-01-23T14:41:11.011Z,102550.47
2023-01-23T14:47:06.271Z,102588.44
2023-01-23T14:52:08.087Z,102588.81
2023-01-23T14:57:16.825Z,102583.75
2023-01-23T15:16:02.065Z,102617.16
2023-01-23T15:21:09.269Z,102593.50
2023-01-23T15:26:41.006Z,102639.53
2023-01-23T15:31:42.836Z,102631.03
2023-01-23T15:37:08.274Z,102600.63
2023-01-23T15:42:12.354Z,102623.28
2023-01-23T15:47:10.782Z,102644.38
2023-01-23T15:52:28.703Z,102632.56
2023-01-23T15:57:29.724Z,102617.75
2023-01-23T16:02:32.982Z,102649.91
2023-01-23T16:07:39.979Z,102637.31
2023-01-23T16:12:41.540Z,102652.53
2023-01-23T16:17:43.326Z,102691.50
2023-01-23T16:28:18.220Z,102665.34
2023-01-23T16:33:17.422Z,102688.69
2023-01-23T16:38:28.813Z,102680.47
2023-01-23T16:43:27.547Z,102680.66
2023-01-23T16:48:29.340Z,102700.03
2023-01-23T16:53:32.860Z,102676.88
2023-01-23T16:58:41.813Z,102716.06
2023-01-23T17:03:41.480Z,102704.47
2023-01-23T17:08:39.871Z,102700.34
2023-01-23T17:13:40.388Z,102719.03
2023-01-23T17:18:39.673Z,102700.19
2023-01-23T17:23:41.758Z,102690.06
2023-01-23T17:28:39.133Z,102717.97
2023-01-23T17:33:39.037Z,102705.81
2023-01-23T17:38:42.300Z,102681.81
2023-01-23T17:43:50.461Z,102705.06
2023-01-23T17:48:48.462Z,102674.72
2023-01-23T17:53:47.726Z,102663.94
2023-01-23T17:58:46.806Z,102697.22
2023-01-23T18:03:44.277Z,102717.28
2023-01-23T18:08:44.977Z,102719.00
2023-01-23T18:13:49.198Z,102732.63
2023-01-23T18:18:57.639Z,102717.31
2023-01-23T18:23:59.834Z,102714.69
2023-01-23T18:29:12.360Z,102729.78
2023-01-23T18:34:16.679Z,102754.28
2023-01-23T18:39:35.589Z,102749.22
2023-01-23T18:44:53.988Z,102725.34
2023-01-23T18:49:54.305Z,102737.47
2023-01-23T18:55:03.515Z,102768.22
2023-01-23T19:00:13.197Z,102774.63
2023-01-23T19:05:18.644Z,102783.47
2023-01-23T19:10:22.235Z,102760.41
2023-01-23T19:15:24.924Z,102744.03
2023-01-23T19:20:47.563Z,102782.00
2023-01-23T19:25:50.368Z,102732.19
2023-01-23T19:30:50.346Z,102791.44
2023-01-23T19:35:52.944Z,102799.97
2023-01-23T19:40:53.684Z,102766.50
2023-01-23T19:46:03.145Z,102773.78
2023-01-23T19:51:03.945Z,102779.28
2023-01-23T19:56:14.058Z,102780.41
2023-01-23T20:01:37.605Z,102783.53
2023-01-23T20:06:41.528Z,102786.56
2023-01-23T20:11:44.978Z,102806.84
2023-01-23T20:16:43.936Z,102799.88
2023-01-23T20:21:47.533Z,102781.88
2023-01-23T20:26:47.109Z,102799.78
2023-01-23T20:31:44.656Z,102820.09
2023-01-23T20:36:45.840Z,102799.41
2023-01-23T20:41:46.485Z,102829.72
2023-01-23T20:46:44.586Z,102846.63
2023-01-23T20:51:44.828Z,102780.94
2023-01-23T20:56:46.143Z,102813.63
2023-01-23T21:02:05.218Z,102795.53
2023-01-23T21:07:04.337Z,102822.84
2023-01-23T21:12:05.743Z,102794.28
2023-01-23T21:17:06.862Z,102843.44
2023-01-23T21:22:06.237Z,102806.13
2023-01-23T21:27:07.557Z,102822.06
2023-01-23T21:32:06.201Z,102808.09
2023-01-23T21:37:09.546Z,102823.34
2023-01-23T21:42:08.791Z,102815.59
2023-01-23T21:47:07.562Z,102795.72
2023-01-23T21:52:06.607Z,102793.88
2023-01-23T21:57:05.812Z,102788.00
2023-01-23T22:02:05.654Z,102784.91
2023-01-23T22:07:03.623Z,102798.19
2023-01-23T22:12:05.417Z,102802.97
2023-01-23T22:17:06.462Z,102816.72
2023-01-23T22:22:05.408Z,102805.00
2023-01-23T22:27:05.410Z,102785.13
2023-01-23T22:32:04.685Z,102807.41
2023-01-23T22:37:04.877Z,102799.88
2023-01-23T22:42:07.214Z,102803.16
2023-01-23T22:47:09.080Z,102804.44
2023-01-23T22:52:11.100Z,102833.38
2023-01-23T22:57:10.476Z,102808.69
2023-01-23T23:02:10.525Z,102815.09
2023-01-23T23:07:09.991Z,102803.78
2023-01-23T23:12:13.664Z,102803.72
2023-01-23T23:17:12.815Z,102829.88
2023-01-23T23:22:11.373Z,102812.06
2023-01-23T23:27:10.146Z,102836.81
2023-01-23T23:32:14.696Z,102795.97
2023-01-23T23:37:14.873Z,102817.09
2023-01-23T23:42:14.731Z,102793.72
2023-01-23T23:47:16.005Z,102791.81
2023-01-23T23:52:14.172Z,102799.72
2023-01-23T23:57:16.760Z,102812.66
